createdAt,value
2019-02-19T00:03:40.280Z,12.93
2019-02-19T00:06:08.992Z,14.87
2019-02-19T00:08:56.861Z,13.27
2019-02-19T00:11:25.500Z,13.70
2019-02-19T00:13:54.167Z,12.33
2019-02-19T00:16:22.874Z,16.10
2019-02-19T00:21:40.884Z,13.70
2019-02-19T00:24:09.638Z,12.30
2019-02-19T00:26:38.224Z,12.50
2019-02-19T00:29:06.914Z,11.30
2019-02-19T00:31:35.499Z,14.77
2019-02-19T00:34:04.146Z,13.87
2019-02-19T00:36:32.884Z,11.73
2019-02-19T00:39:01.523Z,10.43
2019-02-19T00:41:49.400Z,12.93
2019-02-19T00:44:18.070Z,17.60
2019-02-19T00:46:46.725Z,15.37
2019-02-19T00:49:15.420Z,17.80
2019-02-19T00:51:44.114Z,11.87
2019-02-19T00:54:12.801Z,12.30
2019-02-19T00:56:41.508Z,10.23
2019-02-19T00:59:10.215Z,10.43
2019-02-19T01:01:38.889Z,11.80
2019-02-19T01:04:07.565Z,10.47
2019-02-19T01:06:36.215Z,13.23
2019-02-19T01:09:44.690Z,10.53
2019-02-19T01:12:13.388Z,12.47
2019-02-19T01:14:42.038Z,12.87
2019-02-19T01:17:10.750Z,13.20
2019-02-19T01:19:39.393Z,9.17
2019-02-19T01:22:27.344Z,14.83
2019-02-19T01:24:56.087Z,13.57
2019-02-19T01:27:24.665Z,10.37
2019-02-19T01:29:53.344Z,12.80
2019-02-19T01:32:22.003Z,12.83
2019-02-19T01:34:50.682Z,13.27
2019-02-19T01:37:19.364Z,10.77
2019-02-19T01:39:48.055Z,11.07
2019-02-19T01:42:16.696Z,10.60
2019-02-19T01:44:45.427Z,12.23
2019-02-19T01:47:14.066Z,11.33
2019-02-19T01:49:42.751Z,11.87
2019-02-19T01:52:11.581Z,10.83
2019-02-19T01:54:40.276Z,13.00
2019-02-19T01:57:08.964Z,9.60
2019-02-19T01:59:37.577Z,13.93
2019-02-19T02:02:06.351Z,9.77
2019-02-19T02:04:35.083Z,15.27
2019-02-19T02:07:04.532Z,11.80
2019-02-19T02:09:34.076Z,12.83
2019-02-19T02:12:02.723Z,11.33
2019-02-19T02:14:31.525Z,13.77
2019-02-19T02:17:00.230Z,10.60
2019-02-19T02:22:16.491Z,16.53
2019-02-19T02:25:04.344Z,14.57
2019-02-19T02:27:52.295Z,12.93
2019-02-19T02:30:20.979Z,11.97
2019-02-19T02:32:49.682Z,11.77
2019-02-19T02:35:18.327Z,14.97
2019-02-19T02:37:46.881Z,13.70
2019-02-19T02:40:15.611Z,14.33
2019-02-19T02:42:44.228Z,10.77
2019-02-19T02:45:12.849Z,15.13
2019-02-19T02:47:41.614Z,16.10
2019-02-19T02:50:10.280Z,13.53
2019-02-19T02:52:58.206Z,16.33
2019-02-19T02:55:26.749Z,9.20
2019-02-19T02:57:55.425Z,11.17
2019-02-19T03:00:24.206Z,11.63
2019-02-19T03:02:52.913Z,12.87
2019-02-19T03:05:21.567Z,12.13
2019-02-19T03:10:29.476Z,10.80
2019-02-19T03:12:58.094Z,10.47
2019-02-19T03:15:26.746Z,17.10
2019-02-19T03:20:30.086Z,8.73
2019-02-19T03:22:58.745Z,15.03
2019-02-19T03:25:27.429Z,11.73
2019-02-19T03:27:56.088Z,11.07
2019-02-19T03:30:44.064Z,14.50
2019-02-19T03:33:12.717Z,10.60
2019-02-19T03:35:41.409Z,12.43
2019-02-19T03:38:09.993Z,13.23
2019-02-19T03:40:38.652Z,13.97
2019-02-19T03:43:07.303Z,11.03
2019-02-19T03:45:35.939Z,9.43
2019-02-19T03:48:04.744Z,9.70
2019-02-19T03:50:33.322Z,10.50
2019-02-19T03:53:02.015Z,8.53
2019-02-19T03:56:10.487Z,13.40
2019-02-19T03:58:39.138Z,11.53
2019-02-19T04:01:27.091Z,10.53
2019-02-19T04:03:55.745Z,9.77
2019-02-19T04:06:24.368Z,9.73
2019-02-19T04:09:12.153Z,14.13
2019-02-19T04:11:40.829Z,11.47
2019-02-19T04:14:09.598Z,12.40
2019-02-19T04:16:38.417Z,13.07
2019-02-19T04:19:07.094Z,9.70
2019-02-19T04:21:54.934Z,9.47
2019-02-19T04:24:23.512Z,8.43
2019-02-19T04:26:52.167Z,7.70
2019-02-19T04:29:39.981Z,11.50
2019-02-19T04:32:08.629Z,11.17
2019-02-19T04:34:37.319Z,9.60
2019-02-19T04:37:05.902Z,8.00
2019-02-19T04:39:34.584Z,7.27
2019-02-19T04:42:03.253Z,12.03
2019-02-19T04:44:31.885Z,8.20
2019-02-19T04:47:00.652Z,10.90
2019-02-19T04:49:29.320Z,10.23
2019-02-19T04:51:58.051Z,11.20
2019-02-19T04:54:26.704Z,7.47
2019-02-19T04:57:14.727Z,11.47
2019-02-19T04:59:43.436Z,14.93
2019-02-19T05:02:12.142Z,9.40
2019-02-19T05:05:00.049Z,11.50
2019-02-19T05:07:28.743Z,9.50
2019-02-19T05:09:57.366Z,8.17
2019-02-19T05:12:26.026Z,8.40
2019-02-19T05:15:13.844Z,8.30
2019-02-19T05:17:42.546Z,7.23
2019-02-19T05:20:11.198Z,11.07
2019-02-19T05:22:39.838Z,12.20
2019-02-19T05:25:48.318Z,9.13
2019-02-19T05:28:16.836Z,8.20
2019-02-19T05:30:45.510Z,9.73
2019-02-19T05:33:14.156Z,7.13
2019-02-19T05:36:02.024Z,5.63
2019-02-19T05:38:30.702Z,10.67
2019-02-19T05:40:59.281Z,12.23
2019-02-19T05:43:28.115Z,10.07
2019-02-19T05:45:56.761Z,7.70
2019-02-19T05:48:44.645Z,7.43
2019-02-19T05:51:13.344Z,5.70
2019-02-19T05:53:42.142Z,7.77
2019-02-19T05:56:10.984Z,9.33
2019-02-19T05:58:41.351Z,8.27
2019-02-19T06:01:10.045Z,10.63
2019-02-19T06:03:38.680Z,6.13
2019-02-19T06:06:07.259Z,8.80
2019-02-19T06:08:36.461Z,7.73
2019-02-19T06:11:45.240Z,6.67
2019-02-19T06:14:13.858Z,5.10
2019-02-19T06:19:37.806Z,7.23
2019-02-19T06:25:13.602Z,11.90
2019-02-19T06:27:42.343Z,7.50
2019-02-19T06:30:32.149Z,9.67
2019-02-19T06:33:01.728Z,10.03
2019-02-19T06:38:19.543Z,7.77
2019-02-19T06:41:07.502Z,8.60
2019-02-19T06:43:36.200Z,7.30
2019-02-19T06:46:04.906Z,8.40
2019-02-19T06:48:33.595Z,5.80
2019-02-19T06:51:02.297Z,6.67
2019-02-19T06:53:31.037Z,9.23
2019-02-19T06:55:59.713Z,7.77
2019-02-19T06:58:28.369Z,5.67
2019-02-19T07:00:57.051Z,6.20
2019-02-19T07:06:14.951Z,6.83
2019-02-19T07:08:43.616Z,4.90
2019-02-19T07:11:12.304Z,11.23
2019-02-19T07:16:49.480Z,5.37
2019-02-19T07:19:18.129Z,7.13
2019-02-19T07:21:46.769Z,7.50
2019-02-19T07:24:34.558Z,7.23
2019-02-19T07:27:03.338Z,5.97
2019-02-19T07:29:51.138Z,5.53
2019-02-19T07:32:19.774Z,4.80
2019-02-19T07:35:07.611Z,5.53
2019-02-19T07:37:36.277Z,5.30
2019-02-19T07:40:44.749Z,5.63
2019-02-19T07:43:13.445Z,7.03
2019-02-19T07:45:42.194Z,6.93
2019-02-19T07:48:10.881Z,4.83
2019-02-19T07:50:39.611Z,5.27
2019-02-19T07:53:08.266Z,7.37
2019-02-19T07:55:36.884Z,6.23
2019-02-19T07:58:05.583Z,7.60
2019-02-19T08:00:34.274Z,9.00
2019-02-19T08:03:04.545Z,4.20
2019-02-19T08:05:33.378Z,8.53
2019-02-19T08:08:21.205Z,4.60
2019-02-19T08:10:49.820Z,5.87
2019-02-19T08:13:18.477Z,5.23
2019-02-19T08:15:47.086Z,5.33
2019-02-19T08:18:15.748Z,9.53
2019-02-19T08:20:44.421Z,5.60
2019-02-19T08:23:32.362Z,6.03
2019-02-19T08:26:01.087Z,6.10
2019-02-19T08:28:29.656Z,5.30
2019-02-19T08:30:58.271Z,8.50
2019-02-19T08:33:26.924Z,7.97
2019-02-19T08:35:55.608Z,5.60
2019-02-19T08:38:24.195Z,8.30
2019-02-19T08:41:12.143Z,5.00
2019-02-19T08:43:59.992Z,8.37
2019-02-19T08:46:28.690Z,3.93
2019-02-19T08:49:16.554Z,5.13
2019-02-19T08:51:45.213Z,8.07
2019-02-19T08:54:33.100Z,3.57
2019-02-19T08:57:02.013Z,4.00
2019-02-19T08:59:30.625Z,5.57
2019-02-19T09:01:59.326Z,4.90
2019-02-19T09:04:27.927Z,3.50
2019-02-19T09:07:15.733Z,5.33
2019-02-19T09:09:44.423Z,4.10
2019-02-19T09:12:13.074Z,4.63
2019-02-19T09:14:41.717Z,5.97
2019-02-19T09:17:10.400Z,5.10
2019-02-19T09:19:39.126Z,8.00
2019-02-19T09:22:27.002Z,7.83
2019-02-19T09:24:55.696Z,6.87
2019-02-19T09:27:43.606Z,7.20
2019-02-19T09:30:52.082Z,7.00
2019-02-19T09:33:20.714Z,3.87
2019-02-19T09:36:08.584Z,5.53
2019-02-19T09:38:37.293Z,5.43
2019-02-19T09:41:05.916Z,6.70
2019-02-19T09:43:35.751Z,7.83
2019-02-19T09:46:04.891Z,6.83
2019-02-19T09:48:33.593Z,4.53
2019-02-19T09:51:02.257Z,8.23
2019-02-19T09:53:30.831Z,6.17
2019-02-19T09:56:18.783Z,7.00
2019-02-19T09:58:47.431Z,5.37
2019-02-19T10:01:35.220Z,8.77
2019-02-19T10:04:03.880Z,7.67
2019-02-19T10:06:32.608Z,5.17
2019-02-19T10:09:01.273Z,6.23
2019-02-19T10:11:49.148Z,6.13
2019-02-19T10:14:17.809Z,3.83
2019-02-19T10:16:46.510Z,7.17
2019-02-19T10:19:15.144Z,14.07
2019-02-19T10:22:02.999Z,4.60
2019-02-19T10:24:31.701Z,5.33
2019-02-19T10:27:00.405Z,4.77
2019-02-19T10:29:29.045Z,6.00
2019-02-19T10:31:57.740Z,4.60
2019-02-19T10:34:26.397Z,4.57
2019-02-19T10:36:55.049Z,8.90
2019-02-19T10:39:23.865Z,5.43
2019-02-19T10:41:53.059Z,9.97
2019-02-19T10:44:22.959Z,4.67
2019-02-19T10:46:51.657Z,6.13
2019-02-19T10:49:20.226Z,3.77
2019-02-19T10:54:36.577Z,6.73
2019-02-19T10:57:05.253Z,5.67
2019-02-19T10:59:33.953Z,4.47
2019-02-19T11:02:02.607Z,4.63
2019-02-19T11:04:31.372Z,4.23
2019-02-19T11:07:00.016Z,6.33
2019-02-19T11:09:28.719Z,5.03
2019-02-19T11:11:58.132Z,5.40
2019-02-19T11:14:27.886Z,5.80
2019-02-19T11:16:56.561Z,5.03
2019-02-19T11:19:44.405Z,4.57
2019-02-19T11:22:32.272Z,6.00
2019-02-19T11:25:00.908Z,6.90
2019-02-19T11:27:29.870Z,4.80
2019-02-19T11:29:58.603Z,5.07
2019-02-19T11:32:46.412Z,5.23
2019-02-19T11:35:15.123Z,7.03
2019-02-19T11:37:43.827Z,6.50
2019-02-19T11:40:52.245Z,5.47
2019-02-19T11:43:20.947Z,4.87
2019-02-19T11:45:49.536Z,5.43
2019-02-19T11:48:19.201Z,6.37
2019-02-19T11:50:48.664Z,5.97
2019-02-19T11:53:17.335Z,10.70
2019-02-19T11:55:46.039Z,7.80
2019-02-19T11:58:14.678Z,6.43
2019-02-19T12:03:32.571Z,8.00
2019-02-19T12:06:01.339Z,5.20
2019-02-19T12:08:49.228Z,6.10
2019-02-19T12:11:17.909Z,8.30
2019-02-19T12:13:46.573Z,5.17
2019-02-19T12:16:15.263Z,5.37
2019-02-19T12:19:03.177Z,6.33
2019-02-19T12:21:31.892Z,11.03
2019-02-19T12:24:00.562Z,9.13
2019-02-19T12:26:48.820Z,8.50
2019-02-19T12:29:17.571Z,4.93
2019-02-19T12:32:05.459Z,7.10
2019-02-19T12:34:34.077Z,7.27
2019-02-19T12:37:02.590Z,5.27
2019-02-19T12:39:31.286Z,6.03
2019-02-19T12:41:59.954Z,10.33
2019-02-19T12:44:47.911Z,6.93
2019-02-19T12:47:16.496Z,5.70
2019-02-19T12:50:04.464Z,11.43
2019-02-19T12:52:33.120Z,11.87
2019-02-19T12:55:21.093Z,10.50
2019-02-19T12:57:49.781Z,12.13
2019-02-19T13:00:58.283Z,13.37
2019-02-19T13:03:26.932Z,9.60
2019-02-19T13:05:55.618Z,9.50
2019-02-19T13:08:24.300Z,7.60
2019-02-19T13:10:52.988Z,9.70
2019-02-19T13:13:21.655Z,11.00
2019-02-19T13:15:50.350Z,7.93
2019-02-19T13:18:18.983Z,9.47
2019-02-19T13:20:47.762Z,10.03
2019-02-19T13:23:16.413Z,10.83
2019-02-19T13:25:45.070Z,5.87
2019-02-19T13:28:13.763Z,12.03
2019-02-19T13:30:42.403Z,9.20
2019-02-19T13:33:11.143Z,7.77
2019-02-19T13:35:39.834Z,6.57
2019-02-19T13:38:08.506Z,9.07
2019-02-19T13:40:37.221Z,8.17
2019-02-19T13:43:05.986Z,7.83
2019-02-19T13:45:34.634Z,13.07
2019-02-19T13:48:06.022Z,9.10
2019-02-19T13:50:33.704Z,10.30
2019-02-19T13:53:21.541Z,12.07
2019-02-19T13:56:09.359Z,12.43
2019-02-19T13:58:38.066Z,12.03
2019-02-19T14:01:06.726Z,14.70
2019-02-19T14:06:09.471Z,8.37
2019-02-19T14:08:57.406Z,15.80
2019-02-19T14:11:26.106Z,18.67
2019-02-19T14:14:13.862Z,7.17
2019-02-19T14:22:16.221Z,8.57
2019-02-19T14:30:36.070Z,8.03
2019-02-19T14:33:23.876Z,11.03
2019-02-19T14:36:11.678Z,11.17
2019-02-19T14:38:59.514Z,11.80
2019-02-19T14:41:47.252Z,14.50
2019-02-19T14:44:34.992Z,9.97
2019-02-19T14:47:22.785Z,11.47
2019-02-19T14:50:10.600Z,13.80
2019-02-19T14:52:58.425Z,8.10
2019-02-19T14:55:46.169Z,8.50
2019-02-19T14:58:33.932Z,14.00
2019-02-19T15:01:21.785Z,10.87
2019-02-19T15:04:09.598Z,8.47
2019-02-19T15:06:57.417Z,14.17
2019-02-19T15:09:45.222Z,12.13
2019-02-19T15:12:32.972Z,8.90
2019-02-19T15:15:20.793Z,8.67
2019-02-19T15:18:08.626Z,10.40
2019-02-19T15:23:45.654Z,7.37
2019-02-19T15:29:12.711Z,10.40
2019-02-19T15:32:00.490Z,9.80
2019-02-19T15:37:23.940Z,9.17
2019-02-19T15:40:11.716Z,12.97
2019-02-19T15:45:38.566Z,18.30
2019-02-19T15:51:01.729Z,9.10
2019-02-19T15:53:49.563Z,9.03
2019-02-19T15:56:37.361Z,9.17
2019-02-19T15:59:25.182Z,11.27
2019-02-19T16:05:02.230Z,11.10
2019-02-19T16:07:49.981Z,10.50
2019-02-19T16:13:20.819Z,9.97
2019-02-19T16:16:08.602Z,11.50
2019-02-19T16:18:56.423Z,7.77
2019-02-19T16:21:44.202Z,8.77
2019-02-19T16:29:44.388Z,9.03
2019-02-19T16:32:32.170Z,9.83
2019-02-19T16:35:19.981Z,7.20
2019-02-19T16:40:43.219Z,13.57
2019-02-19T16:43:31.021Z,12.77
2019-02-19T16:46:18.849Z,12.07
2019-02-19T16:49:06.663Z,14.00
2019-02-19T16:54:43.710Z,16.43
2019-02-19T17:00:10.476Z,8.50
2019-02-19T17:02:58.371Z,10.23
2019-02-19T17:05:46.152Z,8.37
2019-02-19T17:13:48.456Z,7.43
2019-02-19T17:16:43.849Z,7.53
2019-02-19T17:19:31.667Z,10.40
2019-02-19T17:33:14.557Z,9.23
2019-02-19T17:39:11.058Z,16.07
2019-02-19T17:41:58.946Z,10.70
2019-02-19T17:44:46.941Z,13.43
2019-02-19T17:47:34.810Z,11.07
2019-02-19T17:53:30.768Z,13.73
2019-02-19T17:56:18.588Z,9.30
2019-02-19T18:01:42.147Z,13.37
2019-02-19T18:04:29.972Z,8.93
2019-02-19T18:07:17.816Z,13.53
2019-02-19T18:10:05.648Z,14.77
2019-02-19T18:12:53.363Z,15.53
2019-02-19T18:15:41.178Z,11.67
2019-02-19T18:18:28.952Z,12.80
2019-02-19T18:20:57.700Z,8.23
2019-02-19T18:23:26.291Z,12.97
2019-02-19T18:25:54.977Z,8.67
2019-02-19T18:28:23.649Z,9.13
2019-02-19T18:30:52.357Z,9.67
2019-02-19T18:41:47.408Z,9.03
2019-02-19T18:46:50.543Z,8.40
2019-02-19T18:49:19.255Z,8.83
2019-02-19T18:52:07.102Z,9.57
2019-02-19T18:54:35.809Z,6.77
2019-02-19T18:57:23.642Z,8.87
2019-02-19T18:59:52.256Z,9.03
2019-02-19T19:02:20.897Z,9.63
2019-02-19T19:04:49.653Z,8.10
2019-02-19T19:07:18.405Z,11.47
2019-02-19T19:10:27.008Z,15.43
2019-02-19T19:12:55.836Z,15.60
2019-02-19T19:15:24.678Z,15.67
2019-02-19T19:17:53.515Z,12.70
2019-02-19T19:20:22.203Z,11.80
2019-02-19T19:22:50.971Z,13.53
2019-02-19T19:25:20.538Z,13.50
2019-02-19T19:28:08.717Z,11.73
2019-02-19T19:33:45.549Z,13.97
2019-02-19T19:36:14.373Z,13.63
2019-02-19T19:38:43.009Z,19.20
2019-02-19T19:41:30.912Z,20.87
2019-02-19T19:43:59.573Z,19.00
2019-02-19T19:46:28.295Z,21.67
2019-02-19T19:48:57.123Z,21.03
2019-02-19T19:51:45.085Z,19.30
2019-02-19T19:54:13.755Z,17.27
2019-02-19T19:56:42.546Z,17.87
2019-02-19T19:59:11.295Z,16.60
2019-02-19T20:01:40.001Z,13.23
2019-02-19T20:04:08.755Z,14.43
2019-02-19T20:06:56.666Z,13.47
2019-02-19T20:09:25.347Z,16.50
2019-02-19T20:11:54.205Z,34.80
2019-02-19T20:14:22.933Z,42.30
2019-02-19T20:16:51.511Z,48.03
2019-02-19T20:19:20.197Z,39.27
2019-02-19T20:22:08.254Z,32.93
2019-02-19T20:24:37.192Z,25.40
2019-02-19T20:27:05.867Z,23.07
2019-02-19T20:29:34.559Z,22.77
2019-02-19T20:32:03.331Z,19.10
2019-02-19T20:34:32.151Z,21.87
2019-02-19T20:37:00.958Z,15.93
2019-02-19T20:39:48.867Z,14.17
2019-02-19T20:42:17.514Z,12.50
2019-02-19T20:45:26.031Z,12.47
2019-02-19T20:47:54.694Z,12.17
2019-02-19T20:50:23.351Z,13.03
2019-02-19T20:52:52.066Z,16.60
2019-02-19T20:55:39.975Z,12.27
2019-02-19T20:58:08.680Z,12.43
2019-02-19T21:00:37.351Z,15.97
2019-02-19T21:03:25.406Z,10.53
2019-02-19T21:06:13.322Z,15.20
2019-02-19T21:08:42.023Z,15.63
2019-02-19T21:11:10.669Z,15.07
2019-02-19T21:13:39.474Z,13.57
2019-02-19T21:16:27.359Z,12.23
2019-02-19T21:19:15.376Z,10.67
2019-02-19T21:21:45.198Z,15.90
2019-02-19T21:24:14.505Z,13.77
2019-02-19T21:26:43.303Z,12.93
2019-02-19T21:29:11.892Z,15.93
2019-02-19T21:31:59.848Z,15.43
2019-02-19T21:34:28.519Z,16.67
2019-02-19T21:36:57.085Z,14.17
2019-02-19T21:39:25.787Z,19.20
2019-02-19T21:41:54.509Z,15.80
2019-02-19T21:44:23.222Z,17.77
2019-02-19T21:47:11.173Z,13.60
2019-02-19T21:49:39.829Z,15.53
2019-02-19T21:52:08.468Z,13.50
2019-02-19T21:54:37.034Z,12.77
2019-02-19T21:57:05.741Z,15.47
2019-02-19T21:59:34.459Z,17.33
2019-02-19T22:02:03.157Z,14.67
2019-02-19T22:04:32.110Z,17.17
2019-02-19T22:07:02.322Z,17.03
2019-02-19T22:09:31.026Z,16.77
2019-02-19T22:11:59.605Z,13.93
2019-02-19T22:14:28.183Z,15.80
2019-02-19T22:17:16.010Z,13.37
2019-02-19T22:25:47.933Z,17.87
2019-02-19T22:28:16.692Z,14.53
2019-02-19T22:30:45.333Z,14.17
2019-02-19T22:33:14.105Z,15.53
2019-02-19T22:35:42.773Z,20.60
2019-02-19T22:38:11.580Z,16.17
2019-02-19T22:40:40.140Z,20.27
2019-02-19T22:43:08.785Z,15.90
2019-02-19T22:45:37.678Z,14.40
2019-02-19T22:48:06.439Z,16.37
2019-02-19T22:50:35.235Z,16.17
2019-02-19T22:56:12.303Z,15.17
2019-02-19T22:58:40.978Z,16.43
2019-02-19T23:01:49.448Z,16.67
2019-02-19T23:04:18.265Z,18.83
2019-02-19T23:06:46.892Z,16.83
2019-02-19T23:09:34.851Z,15.43
2019-02-19T23:17:12.268Z,17.47
2019-02-19T23:19:42.856Z,14.53
2019-02-19T23:22:11.397Z,22.33
2019-02-19T23:24:59.283Z,16.93
2019-02-19T23:27:27.948Z,17.20
2019-02-19T23:29:56.652Z,18.07
2019-02-19T23:32:25.297Z,18.70
2019-02-19T23:37:29.476Z,18.97
2019-02-19T23:39:57.981Z,16.80
2019-02-19T23:42:45.934Z,17.67
2019-02-19T23:45:14.655Z,22.90
2019-02-19T23:47:43.414Z,18.77
2019-02-19T23:50:12.139Z,15.63
2019-02-19T23:52:40.826Z,19.23
2019-02-19T23:55:09.606Z,18.10
2019-02-19T23:57:38.300Z,23.37
